Karei — V7TL2 — position and weather

sailwx.info

Track history (hours):
 
Tides and Currents Weather Stations Pressure Air Temp Water Temp Dewpoint Dewpoint Depression Visibility Wind Speed Wind Dir Waves Ship Positions

Karei

Last reported at 2018-Feb-25 12:50 UTC. Time now 2018-Feb-25 13:22 UTC.
Position N 31°18' E 121°44'.

Length 228 m; draft 8.9 m.

Type: Tanker. MMSI: 538003823.

Date/timePositionNaut miles runAvg speedWind from/ knotsBaromVisibWave heightAir tempDewpointWater temp
2018-Feb-25 12:50N 31°18' E 121°44'412.3
2018-Feb-25 12:29N 31°15' E 121°47'612.5
2018-Feb-25 12:00N 31°10' E 121°52'612.1
2018-Feb-25 11:30N 31°07' E 121°58'511.0
2018-Feb-25 11:00N 31°04' E 122°04'611.8
2018-Feb-25 10:30N 31°03' E 122°10'4 8.6
2018-Feb-25 10:00N 31°03' E 122°15'5 9.7
2018-Feb-25 09:30N 31°02' E 122°21'4 6.7
2018-Feb-25 08:58N 31°01' E 122°25'711.6
2018-Feb-25 08:21N 31°01' E 122°33'3 0.2
2018-Feb-24 19:20N 31°03' E 122°35'  
2018-Feb-21 12:00N 33°45' E 136°22'5411.2
2018-Feb-21 07:12N 34°27' E 137°03'311.5
2018-Feb-21 06:55N 34°30' E 137°02'410.8
2018-Feb-21 06:30N 34°34' E 136°59'611.5
2018-Feb-21 05:57N 34°38' E 136°53'511.5
2018-Feb-21 05:29N 34°42' E 136°49'611.8
2018-Feb-21 05:00N 34°47' E 136°46'611.4
2018-Feb-21 04:30N 34°53' E 136°45'611.4
2018-Feb-21 04:00N 34°58' E 136°48'510.6
2018-Feb-21 03:30N 35°02' E 136°51'1 1.7
2018-Feb-21 03:00N 35°03' E 136°53'0 0.0
2018-Feb-21 02:30N 35°03' E 136°53'0 0.0
2018-Feb-21 02:00N 35°03' E 136°53'0 0.0
2018-Feb-21 01:30N 35°03' E 136°53'0 0.0
2018-Feb-21 01:00N 35°03' E 136°53'0 0.0
2018-Feb-21 00:30N 35°03' E 136°53'0 0.0
2018-Feb-21 00:00N 35°03' E 136°53'0 0.0
2018-Feb-20 23:30N 35°03' E 136°53'0 0.0
2018-Feb-20 23:00N 35°03' E 136°53'0 0.0
2018-Feb-20 22:30N 35°03' E 136°53'0 0.0
2018-Feb-20 22:00N 35°03' E 136°53'0 0.0
2018-Feb-20 21:30N 35°03' E 136°53'0 0.0
2018-Feb-20 21:00N 35°03' E 136°53'0 0.0
2018-Feb-20 20:30N 35°03' E 136°53'0 0.0
2018-Feb-20 20:00N 35°03' E 136°53'0 0.0
2018-Feb-20 19:30N 35°03' E 136°53'0 0.0
2018-Feb-20 19:00N 35°03' E 136°53'0 0.0
2018-Feb-20 18:30N 35°03' E 136°53'0 0.0
2018-Feb-20 18:00N 35°03' E 136°53'0 0.0
2018-Feb-20 17:30N 35°03' E 136°53'0 0.0
2018-Feb-20 17:00N 35°03' E 136°53'0 0.0
2018-Feb-20 16:30N 35°03' E 136°53'0 0.0
2018-Feb-20 16:00N 35°03' E 136°53'0 0.0
2018-Feb-20 15:30N 35°03' E 136°53'0 0.0
2018-Feb-20 15:00N 35°03' E 136°53'0 0.0
2018-Feb-20 14:30N 35°03' E 136°53'0 0.0
2018-Feb-20 14:00N 35°03' E 136°53'0 0.0
2018-Feb-20 13:30N 35°03' E 136°53'0 0.0
2018-Feb-20 13:00N 35°03' E 136°53'0 0.0
2018-Feb-20 12:30N 35°03' E 136°53'0 0.0
2018-Feb-20 11:48N 35°03' E 136°53'0 0.0
2018-Feb-20 11:30N 35°03' E 136°53'0 0.0
2018-Feb-20 11:00N 35°03' E 136°53'0 0.0
2018-Feb-20 10:30N 35°03' E 136°53'0 0.0
2018-Feb-20 10:00N 35°03' E 136°53'0 0.0
2018-Feb-20 09:30N 35°03' E 136°53'0 0.0
2018-Feb-20 09:00N 35°03' E 136°53'0 0.0
2018-Feb-20 08:30N 35°03' E 136°53'0 0.0
2018-Feb-20 08:00N 35°03' E 136°53'0 0.0
2018-Feb-20 07:30N 35°03' E 136°53'0 0.0
2018-Feb-20 07:00N 35°03' E 136°53'0 0.0
2018-Feb-20 06:30N 35°03' E 136°53'0 0.0
2018-Feb-20 06:00N 35°03' E 136°53'0 0.0
2018-Feb-20 05:30N 35°03' E 136°53'0 0.0
2018-Feb-20 05:00N 35°03' E 136°53'0 0.0
2018-Feb-20 04:30N 35°03' E 136°53'0 0.0
2018-Feb-20 04:00N 35°03' E 136°53'0 0.0
2018-Feb-20 03:30N 35°03' E 136°53'0 0.0
2018-Feb-20 03:00N 35°03' E 136°53'0 0.0
2018-Feb-20 02:30N 35°03' E 136°53'0 0.0
2018-Feb-20 02:00N 35°03' E 136°53'0 0.0
2018-Feb-20 01:30N 35°03' E 136°53'0 0.0
2018-Feb-20 01:00N 35°03' E 136°53'0 0.0
2018-Feb-20 00:30N 35°03' E 136°53'0 0.0
2018-Feb-20 00:00N 35°03' E 136°53'0 0.0
2018-Feb-19 23:30N 35°03' E 136°53'0 0.0
2018-Feb-19 23:00N 35°03' E 136°53'0 0.0
2018-Feb-19 22:30N 35°03' E 136°53'0 0.0
2018-Feb-19 22:00N 35°03' E 136°53'0 0.0
2018-Feb-19 21:24N 35°03' E 136°53'0 0.0
2018-Feb-19 21:00N 35°03' E 136°53'0 0.0
2018-Feb-19 20:30N 35°03' E 136°53'0 0.0
2018-Feb-19 20:00N 35°03' E 136°53'0 0.0
2018-Feb-19 19:30N 35°03' E 136°53'0 0.0
2018-Feb-19 19:00N 35°03' E 136°53'0 0.0
2018-Feb-19 18:30N 35°03' E 136°53'0 0.0
2018-Feb-19 18:00N 35°03' E 136°53'0 0.0
2018-Feb-19 17:30N 35°03' E 136°53'0 0.0
2018-Feb-19 17:00N 35°03' E 136°53'0 0.0
2018-Feb-19 16:30N 35°03' E 136°53'0 0.0
2018-Feb-19 16:00N 35°03' E 136°53'0 0.0
2018-Feb-19 15:30N 35°03' E 136°53'0 0.0
2018-Feb-19 15:00N 35°03' E 136°53'0 0.0
2018-Feb-19 14:21N 35°03' E 136°53'0 0.0
2018-Feb-19 14:00N 35°03' E 136°53'0 0.0
2018-Feb-19 13:30N 35°03' E 136°53'0 0.0
2018-Feb-19 13:00N 35°03' E 136°53'0 0.0
2018-Feb-19 12:30N 35°03' E 136°53'0 0.0
2018-Feb-19 12:00N 35°03' E 136°53'0 0.0
2018-Feb-19 11:30N 35°03' E 136°53'0 0.0
2018-Feb-19 11:00N 35°03' E 136°53'0 0.0
2018-Feb-19 10:30N 35°03' E 136°53'1 2.2
2018-Feb-19 10:00N 35°02' E 136°51'5 9.3
2018-Feb-19 09:30N 34°58' E 136°48'3 6.3
2018-Feb-19 09:00N 34°57' E 136°45'0 0.1
2018-Feb-19 08:24N 34°56' E 136°45'0 0.0
2018-Feb-19 08:00N 34°56' E 136°45'0 0.1
2018-Feb-19 07:30N 34°57' E 136°45'0 0.0
2018-Feb-19 06:48N 34°57' E 136°45'0 0.0
2018-Feb-19 06:30N 34°57' E 136°45'0 0.1
2018-Feb-19 06:00N 34°57' E 136°45'0 0.0
2018-Feb-19 05:30N 34°57' E 136°45'0 0.1
2018-Feb-19 05:00N 34°57' E 136°45'0 0.1
2018-Feb-19 04:30N 34°57' E 136°45'0 0.0
2018-Feb-19 04:00N 34°56' E 136°45'0 0.0
2018-Feb-19 03:27N 34°56' E 136°45'0 0.0
2018-Feb-19 03:00N 34°56' E 136°45'0 0.0
2018-Feb-19 02:30N 34°56' E 136°45'0 0.1
2018-Feb-19 02:00N 34°56' E 136°45'0 0.0
2018-Feb-19 01:30N 34°56' E 136°45'0 0.0
2018-Feb-19 01:00N 34°56' E 136°45'0 0.0
2018-Feb-19 00:30N 34°56' E 136°45'0 0.1
2018-Feb-19 00:00N 34°56' E 136°45'0 0.1
2018-Feb-18 23:30N 34°56' E 136°45'0 0.0
2018-Feb-18 23:00N 34°56' E 136°45'0 0.0
2018-Feb-18 22:30N 34°56' E 136°45'0 0.0
2018-Feb-18 22:00N 34°56' E 136°45'0 0.0
2018-Feb-18 21:30N 34°56' E 136°45'0 0.1
2018-Feb-18 21:00N 34°56' E 136°45'0 0.0
2018-Feb-18 20:30N 34°56' E 136°45'0 0.0
2018-Feb-18 20:00N 34°56' E 136°45'0 0.0
2018-Feb-18 19:30N 34°56' E 136°45'0 0.0
2018-Feb-18 19:00N 34°56' E 136°45'0 0.0
2018-Feb-18 18:30N 34°56' E 136°45'0 0.0
2018-Feb-18 18:00N 34°56' E 136°45'0 0.0
2018-Feb-18 17:30N 34°56' E 136°45'0 0.0
2018-Feb-18 17:00N 34°56' E 136°45'0 0.0
2018-Feb-18 16:30N 34°56' E 136°45'0 0.0
2018-Feb-18 16:00N 34°56' E 136°45'0 0.0
2018-Feb-18 15:30N 34°56' E 136°45'0 0.0
2018-Feb-18 15:00N 34°56' E 136°45'0 0.0
2018-Feb-18 14:30N 34°56' E 136°45'0 0.0
2018-Feb-18 14:00N 34°56' E 136°45'0 0.0
2018-Feb-18 13:30N 34°56' E 136°45'0 0.0
2018-Feb-18 13:00N 34°56' E 136°45'0 0.0
2018-Feb-18 12:30N 34°56' E 136°45'0 0.0
2018-Feb-18 12:00N 34°56' E 136°45'0 0.0
2018-Feb-18 11:30N 34°56' E 136°45'0 0.0
2018-Feb-18 11:00N 34°56' E 136°45'0 0.0
2018-Feb-18 10:30N 34°56' E 136°45'0 0.0
2018-Feb-18 10:00N 34°56' E 136°45'0 0.0
2018-Feb-18 09:30N 34°56' E 136°45'0 0.0
2018-Feb-18 09:00N 34°56' E 136°45'0 0.0
2018-Feb-18 08:30N 34°56' E 136°45'0 0.0
2018-Feb-18 08:00N 34°56' E 136°45'0 0.0
2018-Feb-18 07:30N 34°56' E 136°45'0 0.0
2018-Feb-18 07:00N 34°56' E 136°45'0 0.0
2018-Feb-18 06:30N 34°56' E 136°45'0 0.1
2018-Feb-18 06:00N 34°56' E 136°45'0 0.1
2018-Feb-18 05:30N 34°56' E 136°45'0 0.1
2018-Feb-18 05:00N 34°56' E 136°45'0 0.1
2018-Feb-18 04:30N 34°56' E 136°45'0 0.0
2018-Feb-18 04:00N 34°56' E 136°45'0 0.0
2018-Feb-18 03:30N 34°56' E 136°45'0 0.0
2018-Feb-18 03:00N 34°56' E 136°45'0 0.0
2018-Feb-18 02:30N 34°56' E 136°45'0 0.0
2018-Feb-18 02:00N 34°56' E 136°45'0 0.0
2018-Feb-18 01:30N 34°56' E 136°45'0 0.0
2018-Feb-18 01:00N 34°56' E 136°45'0 0.0
2018-Feb-18 00:30N 34°56' E 136°45'0 0.0
2018-Feb-18 00:00N 34°56' E 136°45'0 0.1
2018-Feb-17 23:30N 34°56' E 136°45'0 0.0
2018-Feb-17 23:00N 34°56' E 136°45'0 0.0
2018-Feb-17 22:30N 34°56' E 136°45'0 0.0
2018-Feb-17 22:00N 34°56' E 136°45'0 0.0
2018-Feb-17 21:30N 34°56' E 136°45'0 0.0
2018-Feb-17 21:00N 34°56' E 136°45'0 0.0
2018-Feb-17 20:30N 34°56' E 136°45'0 0.0
2018-Feb-17 20:00N 34°56' E 136°45'0 0.0
2018-Feb-17 19:30N 34°56' E 136°45'0 0.0
2018-Feb-17 19:00N 34°56' E 136°45'0 0.0
2018-Feb-17 18:30N 34°56' E 136°45'0 0.1
2018-Feb-17 18:00N 34°56' E 136°45'0 0.0
2018-Feb-17 17:30N 34°56' E 136°45'0 0.1
2018-Feb-17 17:00N 34°56' E 136°45'0 0.1
2018-Feb-17 16:30N 34°56' E 136°45'0 0.0
2018-Feb-17 16:00N 34°56' E 136°45'0 0.1
2018-Feb-17 15:30N 34°56' E 136°45'0 0.0
2018-Feb-17 15:00N 34°56' E 136°45'0 0.1
2018-Feb-17 14:30N 34°56' E 136°45'0 0.0
2018-Feb-17 14:00N 34°56' E 136°45'0 0.0
2018-Feb-17 13:30N 34°56' E 136°45'0 0.0
2018-Feb-17 13:00N 34°56' E 136°45'0 0.0
2018-Feb-17 12:30N 34°56' E 136°45'0 0.0
2018-Feb-17 12:00N 34°56' E 136°45'0 0.0
2018-Feb-17 11:30N 34°56' E 136°45'0 0.0
2018-Feb-17 11:00N 34°56' E 136°45'0 0.0
2018-Feb-17 10:30N 34°56' E 136°45'0 0.0
2018-Feb-17 10:00N 34°56' E 136°45'0 0.0
2018-Feb-17 09:30N 34°56' E 136°45'0 0.0
2018-Feb-17 09:00N 34°56' E 136°45'0 0.0
2018-Feb-17 08:30N 34°56' E 136°45'0 0.1
2018-Feb-17 08:00N 34°56' E 136°45'0 0.0
2018-Feb-17 07:30N 34°56' E 136°45'0 0.0
2018-Feb-17 07:00N 34°56' E 136°45'0 0.0
2018-Feb-17 06:30N 34°56' E 136°45'0 0.2
2018-Feb-17 06:00N 34°57' E 136°45'1 2.1
2018-Feb-17 05:30N 34°56' E 136°46'5 9.8
2018-Feb-17 05:00N 34°51' E 136°46'611.4
2018-Feb-17 04:30N 34°46' E 136°48'611.0
2018-Feb-17 03:59N 34°40' E 136°50'1010.9
2018-Feb-17 03:03N 34°34' E 137°00'410.7
2018-Feb-17 02:43N 34°32' E 137°03'210.3
2018-Feb-17 02:30N 34°29' E 137°04'109 8.8
2018-Feb-16 14:09N 33°36' E 135°10'411.1
2018-Feb-16 13:46N 33°40' E 135°07'311.2
2018-Feb-16 13:31N 33°42' E 135°05'611.6
2018-Feb-16 13:00N 33°47' E 135°01'511.0
2018-Feb-16 12:31N 33°52' E 134°58'611.4
2018-Feb-16 12:01N 33°58' E 134°58'511.0
2018-Feb-16 11:31N 34°03' E 134°58'611.4
2018-Feb-16 11:00N 34°09' E 134°58'611.2
2018-Feb-16 10:31N 34°15' E 134°58'510.6
2018-Feb-16 10:00N 34°20' E 134°59'510.6
2018-Feb-16 09:31N 34°24' E 135°02'611.6
2018-Feb-16 09:01N 34°28' E 135°08'611.4
2018-Feb-16 08:31N 34°32' E 135°13'611.4
2018-Feb-16 08:00N 34°35' E 135°18'5 9.8
2018-Feb-16 07:30N 34°38' E 135°23'1 1.5
2018-Feb-16 06:59N 34°38' E 135°24'0 0.0
2018-Feb-16 06:29N 34°38' E 135°24'0 0.0
2018-Feb-16 05:59N 34°38' E 135°24'0 0.0
2018-Feb-16 05:29N 34°38' E 135°24'0 0.0
2018-Feb-16 04:53N 34°38' E 135°24'0 0.0
2018-Feb-16 04:29N 34°38' E 135°24'0 0.0
2018-Feb-16 03:59N 34°38' E 135°24'0 0.0
2018-Feb-16 03:29N 34°38' E 135°24'0 0.0
2018-Feb-16 02:59N 34°38' E 135°24'0 0.0
2018-Feb-16 02:29N 34°38' E 135°24'0 0.0
2018-Feb-16 01:59N 34°38' E 135°24'0 0.0
2018-Feb-16 01:29N 34°38' E 135°24'0 0.0
2018-Feb-16 00:59N 34°38' E 135°24'0 0.0
2018-Feb-16 00:29N 34°38' E 135°24'0 0.0
2018-Feb-15 23:59N 34°38' E 135°24'0 0.0
2018-Feb-15 23:29N 34°38' E 135°24'0 0.0
2018-Feb-15 22:59N 34°38' E 135°24'0 0.0
2018-Feb-15 22:29N 34°38' E 135°24'0 0.0
2018-Feb-15 21:59N 34°38' E 135°24'0 0.0
2018-Feb-15 21:29N 34°38' E 135°24'0 0.0
2018-Feb-15 20:59N 34°38' E 135°24'0 0.0
2018-Feb-15 20:29N 34°38' E 135°24'0 0.0
2018-Feb-15 19:59N 34°38' E 135°24'0 0.0
2018-Feb-15 19:29N 34°38' E 135°24'0 0.0
2018-Feb-15 18:59N 34°38' E 135°24'0 0.0
2018-Feb-15 18:29N 34°38' E 135°24'0 0.0
2018-Feb-15 17:59N 34°38' E 135°24'0 0.0
2018-Feb-15 17:29N 34°38' E 135°24'0 0.0
2018-Feb-15 16:59N 34°38' E 135°24'0 0.0
2018-Feb-15 16:29N 34°38' E 135°24'0 0.0
2018-Feb-15 15:59N 34°38' E 135°24'0 0.0
2018-Feb-15 15:29N 34°38' E 135°24'0 0.0
2018-Feb-15 14:59N 34°38' E 135°24'0 0.0
2018-Feb-15 14:29N 34°38' E 135°24'0 0.0
2018-Feb-15 13:59N 34°38' E 135°24'0 0.0
2018-Feb-15 13:29N 34°38' E 135°24'0 0.0
2018-Feb-15 12:59N 34°38' E 135°24'  
Track history (hours):
 
Tides and Currents Weather Stations Pressure Air Temp Water Temp Dewpoint Dewpoint Depression Visibility Wind Speed Wind Dir Waves Ship Positions

Karei

Last reported at 2018-Feb-25 12:50 UTC. Time now 2018-Feb-25 13:22 UTC.
Position N 31°18' E 121°44'.

Length 228 m; draft 8.9 m.

Type: Tanker. MMSI: 538003823.

Date/timePositionNaut miles runAvg speedWind from/ knotsBaromVisibWave heightAir tempDewpointWater temp
2018-Feb-25 12:50N 31°18' E 121°44'412.3
2018-Feb-25 12:29N 31°15' E 121°47'612.5
2018-Feb-25 12:00N 31°10' E 121°52'612.1
2018-Feb-25 11:30N 31°07' E 121°58'511.0
2018-Feb-25 11:00N 31°04' E 122°04'611.8
2018-Feb-25 10:30N 31°03' E 122°10'4 8.6
2018-Feb-25 10:00N 31°03' E 122°15'5 9.7
2018-Feb-25 09:30N 31°02' E 122°21'4 6.7
2018-Feb-25 08:58N 31°01' E 122°25'711.6
2018-Feb-25 08:21N 31°01' E 122°33'3 0.2
2018-Feb-24 19:20N 31°03' E 122°35'  
2018-Feb-21 12:00N 33°45' E 136°22'5411.2
2018-Feb-21 07:12N 34°27' E 137°03'311.5
2018-Feb-21 06:55N 34°30' E 137°02'410.8
2018-Feb-21 06:30N 34°34' E 136°59'611.5
2018-Feb-21 05:57N 34°38' E 136°53'511.5
2018-Feb-21 05:29N 34°42' E 136°49'611.8
2018-Feb-21 05:00N 34°47' E 136°46'611.4
2018-Feb-21 04:30N 34°53' E 136°45'611.4
2018-Feb-21 04:00N 34°58' E 136°48'510.6
2018-Feb-21 03:30N 35°02' E 136°51'1 1.7
2018-Feb-21 03:00N 35°03' E 136°53'0 0.0
2018-Feb-21 02:30N 35°03' E 136°53'0 0.0
2018-Feb-21 02:00N 35°03' E 136°53'0 0.0
2018-Feb-21 01:30N 35°03' E 136°53'0 0.0
2018-Feb-21 01:00N 35°03' E 136°53'0 0.0
2018-Feb-21 00:30N 35°03' E 136°53'0 0.0
2018-Feb-21 00:00N 35°03' E 136°53'0 0.0
2018-Feb-20 23:30N 35°03' E 136°53'0 0.0
2018-Feb-20 23:00N 35°03' E 136°53'0 0.0
2018-Feb-20 22:30N 35°03' E 136°53'0 0.0
2018-Feb-20 22:00N 35°03' E 136°53'0 0.0
2018-Feb-20 21:30N 35°03' E 136°53'0 0.0
2018-Feb-20 21:00N 35°03' E 136°53'0 0.0
2018-Feb-20 20:30N 35°03' E 136°53'0 0.0
2018-Feb-20 20:00N 35°03' E 136°53'0 0.0
2018-Feb-20 19:30N 35°03' E 136°53'0 0.0
2018-Feb-20 19:00N 35°03' E 136°53'0 0.0
2018-Feb-20 18:30N 35°03' E 136°53'0 0.0
2018-Feb-20 18:00N 35°03' E 136°53'0 0.0
2018-Feb-20 17:30N 35°03' E 136°53'0 0.0
2018-Feb-20 17:00N 35°03' E 136°53'0 0.0
2018-Feb-20 16:30N 35°03' E 136°53'0 0.0
2018-Feb-20 16:00N 35°03' E 136°53'0 0.0
2018-Feb-20 15:30N 35°03' E 136°53'0 0.0
2018-Feb-20 15:00N 35°03' E 136°53'0 0.0
2018-Feb-20 14:30N 35°03' E 136°53'0 0.0
2018-Feb-20 14:00N 35°03' E 136°53'0 0.0
2018-Feb-20 13:30N 35°03' E 136°53'0 0.0
2018-Feb-20 13:00N 35°03' E 136°53'0 0.0
2018-Feb-20 12:30N 35°03' E 136°53'0 0.0
2018-Feb-20 11:48N 35°03' E 136°53'0 0.0
2018-Feb-20 11:30N 35°03' E 136°53'0 0.0
2018-Feb-20 11:00N 35°03' E 136°53'0 0.0
2018-Feb-20 10:30N 35°03' E 136°53'0 0.0
2018-Feb-20 10:00N 35°03' E 136°53'0 0.0
2018-Feb-20 09:30N 35°03' E 136°53'0 0.0
2018-Feb-20 09:00N 35°03' E 136°53'0 0.0
2018-Feb-20 08:30N 35°03' E 136°53'0 0.0
2018-Feb-20 08:00N 35°03' E 136°53'0 0.0
2018-Feb-20 07:30N 35°03' E 136°53'0 0.0
2018-Feb-20 07:00N 35°03' E 136°53'0 0.0
2018-Feb-20 06:30N 35°03' E 136°53'0 0.0
2018-Feb-20 06:00N 35°03' E 136°53'0 0.0
2018-Feb-20 05:30N 35°03' E 136°53'0 0.0
2018-Feb-20 05:00N 35°03' E 136°53'0 0.0
2018-Feb-20 04:30N 35°03' E 136°53'0 0.0
2018-Feb-20 04:00N 35°03' E 136°53'0 0.0
2018-Feb-20 03:30N 35°03' E 136°53'0 0.0
2018-Feb-20 03:00N 35°03' E 136°53'0 0.0
2018-Feb-20 02:30N 35°03' E 136°53'0 0.0
2018-Feb-20 02:00N 35°03' E 136°53'0 0.0
2018-Feb-20 01:30N 35°03' E 136°53'0 0.0
2018-Feb-20 01:00N 35°03' E 136°53'0 0.0
2018-Feb-20 00:30N 35°03' E 136°53'0 0.0
2018-Feb-20 00:00N 35°03' E 136°53'0 0.0
2018-Feb-19 23:30N 35°03' E 136°53'0 0.0
2018-Feb-19 23:00N 35°03' E 136°53'0 0.0
2018-Feb-19 22:30N 35°03' E 136°53'0 0.0
2018-Feb-19 22:00N 35°03' E 136°53'0 0.0
2018-Feb-19 21:24N 35°03' E 136°53'0 0.0
2018-Feb-19 21:00N 35°03' E 136°53'0 0.0
2018-Feb-19 20:30N 35°03' E 136°53'0 0.0
2018-Feb-19 20:00N 35°03' E 136°53'0 0.0
2018-Feb-19 19:30N 35°03' E 136°53'0 0.0
2018-Feb-19 19:00N 35°03' E 136°53'0 0.0
2018-Feb-19 18:30N 35°03' E 136°53'0 0.0
2018-Feb-19 18:00N 35°03' E 136°53'0 0.0
2018-Feb-19 17:30N 35°03' E 136°53'0 0.0
2018-Feb-19 17:00N 35°03' E 136°53'0 0.0
2018-Feb-19 16:30N 35°03' E 136°53'0 0.0
2018-Feb-19 16:00N 35°03' E 136°53'0 0.0
2018-Feb-19 15:30N 35°03' E 136°53'0 0.0
2018-Feb-19 15:00N 35°03' E 136°53'0 0.0
2018-Feb-19 14:21N 35°03' E 136°53'0 0.0
2018-Feb-19 14:00N 35°03' E 136°53'0 0.0
2018-Feb-19 13:30N 35°03' E 136°53'0 0.0
2018-Feb-19 13:00N 35°03' E 136°53'0 0.0
2018-Feb-19 12:30N 35°03' E 136°53'0 0.0
2018-Feb-19 12:00N 35°03' E 136°53'0 0.0
2018-Feb-19 11:30N 35°03' E 136°53'0 0.0
2018-Feb-19 11:00N 35°03' E 136°53'0 0.0
2018-Feb-19 10:30N 35°03' E 136°53'1 2.2
2018-Feb-19 10:00N 35°02' E 136°51'5 9.3
2018-Feb-19 09:30N 34°58' E 136°48'3 6.3
2018-Feb-19 09:00N 34°57' E 136°45'0 0.1
2018-Feb-19 08:24N 34°56' E 136°45'0 0.0
2018-Feb-19 08:00N 34°56' E 136°45'0 0.1
2018-Feb-19 07:30N 34°57' E 136°45'0 0.0
2018-Feb-19 06:48N 34°57' E 136°45'0 0.0
2018-Feb-19 06:30N 34°57' E 136°45'0 0.1
2018-Feb-19 06:00N 34°57' E 136°45'0 0.0
2018-Feb-19 05:30N 34°57' E 136°45'0 0.1
2018-Feb-19 05:00N 34°57' E 136°45'0 0.1
2018-Feb-19 04:30N 34°57' E 136°45'0 0.0
2018-Feb-19 04:00N 34°56' E 136°45'0 0.0
2018-Feb-19 03:27N 34°56' E 136°45'0 0.0
2018-Feb-19 03:00N 34°56' E 136°45'0 0.0
2018-Feb-19 02:30N 34°56' E 136°45'0 0.1
2018-Feb-19 02:00N 34°56' E 136°45'0 0.0
2018-Feb-19 01:30N 34°56' E 136°45'0 0.0
2018-Feb-19 01:00N 34°56' E 136°45'0 0.0
2018-Feb-19 00:30N 34°56' E 136°45'0 0.1
2018-Feb-19 00:00N 34°56' E 136°45'0 0.1
2018-Feb-18 23:30N 34°56' E 136°45'0 0.0
2018-Feb-18 23:00N 34°56' E 136°45'0 0.0
2018-Feb-18 22:30N 34°56' E 136°45'0 0.0
2018-Feb-18 22:00N 34°56' E 136°45'0 0.0
2018-Feb-18 21:30N 34°56' E 136°45'0 0.1
2018-Feb-18 21:00N 34°56' E 136°45'0 0.0
2018-Feb-18 20:30N 34°56' E 136°45'0 0.0
2018-Feb-18 20:00N 34°56' E 136°45'0 0.0
2018-Feb-18 19:30N 34°56' E 136°45'0 0.0
2018-Feb-18 19:00N 34°56' E 136°45'0 0.0
2018-Feb-18 18:30N 34°56' E 136°45'0 0.0
2018-Feb-18 18:00N 34°56' E 136°45'0 0.0
2018-Feb-18 17:30N 34°56' E 136°45'0 0.0
2018-Feb-18 17:00N 34°56' E 136°45'0 0.0
2018-Feb-18 16:30N 34°56' E 136°45'0 0.0
2018-Feb-18 16:00N 34°56' E 136°45'0 0.0
2018-Feb-18 15:30N 34°56' E 136°45'0 0.0
2018-Feb-18 15:00N 34°56' E 136°45'0 0.0
2018-Feb-18 14:30N 34°56' E 136°45'0 0.0
2018-Feb-18 14:00N 34°56' E 136°45'0 0.0
2018-Feb-18 13:30N 34°56' E 136°45'0 0.0
2018-Feb-18 13:00N 34°56' E 136°45'0 0.0
2018-Feb-18 12:30N 34°56' E 136°45'0 0.0
2018-Feb-18 12:00N 34°56' E 136°45'0 0.0
2018-Feb-18 11:30N 34°56' E 136°45'0 0.0
2018-Feb-18 11:00N 34°56' E 136°45'0 0.0
2018-Feb-18 10:30N 34°56' E 136°45'0 0.0
2018-Feb-18 10:00N 34°56' E 136°45'0 0.0
2018-Feb-18 09:30N 34°56' E 136°45'0 0.0
2018-Feb-18 09:00N 34°56' E 136°45'0 0.0
2018-Feb-18 08:30N 34°56' E 136°45'0 0.0
2018-Feb-18 08:00N 34°56' E 136°45'0 0.0
2018-Feb-18 07:30N 34°56' E 136°45'0 0.0
2018-Feb-18 07:00N 34°56' E 136°45'0 0.0
2018-Feb-18 06:30N 34°56' E 136°45'0 0.1
2018-Feb-18 06:00N 34°56' E 136°45'0 0.1
2018-Feb-18 05:30N 34°56' E 136°45'0 0.1
2018-Feb-18 05:00N 34°56' E 136°45'0 0.1
2018-Feb-18 04:30N 34°56' E 136°45'0 0.0
2018-Feb-18 04:00N 34°56' E 136°45'0 0.0
2018-Feb-18 03:30N 34°56' E 136°45'0 0.0
2018-Feb-18 03:00N 34°56' E 136°45'0 0.0
2018-Feb-18 02:30N 34°56' E 136°45'0 0.0
2018-Feb-18 02:00N 34°56' E 136°45'0 0.0
2018-Feb-18 01:30N 34°56' E 136°45'0 0.0
2018-Feb-18 01:00N 34°56' E 136°45'0 0.0
2018-Feb-18 00:30N 34°56' E 136°45'0 0.0
2018-Feb-18 00:00N 34°56' E 136°45'0 0.1
2018-Feb-17 23:30N 34°56' E 136°45'0 0.0
2018-Feb-17 23:00N 34°56' E 136°45'0 0.0
2018-Feb-17 22:30N 34°56' E 136°45'0 0.0
2018-Feb-17 22:00N 34°56' E 136°45'0 0.0
2018-Feb-17 21:30N 34°56' E 136°45'0 0.0
2018-Feb-17 21:00N 34°56' E 136°45'0 0.0
2018-Feb-17 20:30N 34°56' E 136°45'0 0.0
2018-Feb-17 20:00N 34°56' E 136°45'0 0.0
2018-Feb-17 19:30N 34°56' E 136°45'0 0.0
2018-Feb-17 19:00N 34°56' E 136°45'0 0.0
2018-Feb-17 18:30N 34°56' E 136°45'0 0.1
2018-Feb-17 18:00N 34°56' E 136°45'0 0.0
2018-Feb-17 17:30N 34°56' E 136°45'0 0.1
2018-Feb-17 17:00N 34°56' E 136°45'0 0.1
2018-Feb-17 16:30N 34°56' E 136°45'0 0.0
2018-Feb-17 16:00N 34°56' E 136°45'0 0.1
2018-Feb-17 15:30N 34°56' E 136°45'0 0.0
2018-Feb-17 15:00N 34°56' E 136°45'0 0.1
2018-Feb-17 14:30N 34°56' E 136°45'0 0.0
2018-Feb-17 14:00N 34°56' E 136°45'0 0.0
2018-Feb-17 13:30N 34°56' E 136°45'0 0.0
2018-Feb-17 13:00N 34°56' E 136°45'0 0.0
2018-Feb-17 12:30N 34°56' E 136°45'0 0.0
2018-Feb-17 12:00N 34°56' E 136°45'0 0.0
2018-Feb-17 11:30N 34°56' E 136°45'0 0.0
2018-Feb-17 11:00N 34°56' E 136°45'0 0.0
2018-Feb-17 10:30N 34°56' E 136°45'0 0.0
2018-Feb-17 10:00N 34°56' E 136°45'0 0.0
2018-Feb-17 09:30N 34°56' E 136°45'0 0.0
2018-Feb-17 09:00N 34°56' E 136°45'0 0.0
2018-Feb-17 08:30N 34°56' E 136°45'0 0.1
2018-Feb-17 08:00N 34°56' E 136°45'0 0.0
2018-Feb-17 07:30N 34°56' E 136°45'0 0.0
2018-Feb-17 07:00N 34°56' E 136°45'0 0.0
2018-Feb-17 06:30N 34°56' E 136°45'0 0.2
2018-Feb-17 06:00N 34°57' E 136°45'1 2.1
2018-Feb-17 05:30N 34°56' E 136°46'5 9.8
2018-Feb-17 05:00N 34°51' E 136°46'611.4
2018-Feb-17 04:30N 34°46' E 136°48'611.0
2018-Feb-17 03:59N 34°40' E 136°50'1010.9
2018-Feb-17 03:03N 34°34' E 137°00'410.7
2018-Feb-17 02:43N 34°32' E 137°03'210.3
2018-Feb-17 02:30N 34°29' E 137°04'109 8.8
2018-Feb-16 14:09N 33°36' E 135°10'411.1
2018-Feb-16 13:46N 33°40' E 135°07'311.2
2018-Feb-16 13:31N 33°42' E 135°05'611.6
2018-Feb-16 13:00N 33°47' E 135°01'511.0
2018-Feb-16 12:31N 33°52' E 134°58'611.4
2018-Feb-16 12:01N 33°58' E 134°58'511.0
2018-Feb-16 11:31N 34°03' E 134°58'611.4
2018-Feb-16 11:00N 34°09' E 134°58'611.2
2018-Feb-16 10:31N 34°15' E 134°58'510.6
2018-Feb-16 10:00N 34°20' E 134°59'510.6
2018-Feb-16 09:31N 34°24' E 135°02'611.6
2018-Feb-16 09:01N 34°28' E 135°08'611.4
2018-Feb-16 08:31N 34°32' E 135°13'611.4
2018-Feb-16 08:00N 34°35' E 135°18'5 9.8
2018-Feb-16 07:30N 34°38' E 135°23'1 1.5
2018-Feb-16 06:59N 34°38' E 135°24'0 0.0
2018-Feb-16 06:29N 34°38' E 135°24'0 0.0
2018-Feb-16 05:59N 34°38' E 135°24'0 0.0
2018-Feb-16 05:29N 34°38' E 135°24'0 0.0
2018-Feb-16 04:53N 34°38' E 135°24'0 0.0
2018-Feb-16 04:29N 34°38' E 135°24'0 0.0
2018-Feb-16 03:59N 34°38' E 135°24'0 0.0
2018-Feb-16 03:29N 34°38' E 135°24'0 0.0
2018-Feb-16 02:59N 34°38' E 135°24'0 0.0
2018-Feb-16 02:29N 34°38' E 135°24'0 0.0
2018-Feb-16 01:59N 34°38' E 135°24'0 0.0
2018-Feb-16 01:29N 34°38' E 135°24'0 0.0
2018-Feb-16 00:59N 34°38' E 135°24'0 0.0
2018-Feb-16 00:29N 34°38' E 135°24'0 0.0
2018-Feb-15 23:59N 34°38' E 135°24'0 0.0
2018-Feb-15 23:29N 34°38' E 135°24'0 0.0
2018-Feb-15 22:59N 34°38' E 135°24'0 0.0
2018-Feb-15 22:29N 34°38' E 135°24'0 0.0
2018-Feb-15 21:59N 34°38' E 135°24'0 0.0
2018-Feb-15 21:29N 34°38' E 135°24'0 0.0
2018-Feb-15 20:59N 34°38' E 135°24'0 0.0
2018-Feb-15 20:29N 34°38' E 135°24'0 0.0
2018-Feb-15 19:59N 34°38' E 135°24'0 0.0
2018-Feb-15 19:29N 34°38' E 135°24'0 0.0
2018-Feb-15 18:59N 34°38' E 135°24'0 0.0
2018-Feb-15 18:29N 34°38' E 135°24'0 0.0
2018-Feb-15 17:59N 34°38' E 135°24'0 0.0
2018-Feb-15 17:29N 34°38' E 135°24'0 0.0
2018-Feb-15 16:59N 34°38' E 135°24'0 0.0
2018-Feb-15 16:29N 34°38' E 135°24'0 0.0
2018-Feb-15 15:59N 34°38' E 135°24'0 0.0
2018-Feb-15 15:29N 34°38' E 135°24'0 0.0
2018-Feb-15 14:59N 34°38' E 135°24'0 0.0
2018-Feb-15 14:29N 34°38' E 135°24'0 0.0
2018-Feb-15 13:59N 34°38' E 135°24'0 0.0
2018-Feb-15 13:29N 34°38' E 135°24'0 0.0
2018-Feb-15 12:59N 34°38' E 135°24'  

Dump ship's entire track history